createdAt,value
2022-11-18T00:00:57.365Z,98943.19
2022-11-18T00:03:24.730Z,98943.63
2022-11-18T00:05:55.329Z,98944.91
2022-11-18T00:08:22.744Z,98950.16
2022-11-18T00:10:49.383Z,98963.84
2022-11-18T00:13:34.798Z,98954.59
2022-11-18T00:16:02.213Z,98961.84
2022-11-18T00:18:29.089Z,98967.94
2022-11-18T00:20:55.712Z,98966.78
2022-11-18T00:23:22.469Z,98965.59
2022-11-18T00:25:49.073Z,98970.41
2022-11-18T00:28:15.808Z,98974.84
2022-11-18T00:30:42.576Z,98972.03
2022-11-18T00:33:09.311Z,98987.72
2022-11-18T00:35:36.028Z,98984.09
2022-11-18T00:38:02.635Z,98990.06
2022-11-18T00:40:29.202Z,98992.53
2022-11-18T00:42:56.539Z,98994.50
2022-11-18T00:45:23.697Z,99004.09
2022-11-18T00:47:50.320Z,99002.13
2022-11-18T00:50:17.196Z,99007.25
2022-11-18T00:52:43.897Z,99013.34
2022-11-18T00:55:10.529Z,99008.44
2022-11-18T00:57:37.203Z,99016.84
2022-11-18T01:00:06.687Z,99018.50
2022-11-18T01:02:33.350Z,99020.00
2022-11-18T01:05:00.142Z,99028.09
2022-11-18T01:07:26.897Z,99019.19
2022-11-18T01:09:53.521Z,99028.78
2022-11-18T01:12:38.911Z,99031.97
2022-11-18T01:15:05.863Z,99029.50
2022-11-18T01:17:32.623Z,99031.88
2022-11-18T01:19:59.577Z,99034.56
2022-11-18T01:22:26.242Z,99034.94
2022-11-18T01:24:52.942Z,99034.47
2022-11-18T01:27:19.564Z,99040.91
2022-11-18T01:29:46.223Z,99043.22
2022-11-18T01:32:28.287Z,99055.53
2022-11-18T01:34:54.893Z,99051.56
2022-11-18T01:37:21.678Z,99053.09
2022-11-18T01:39:48.407Z,99059.06
2022-11-18T01:42:16.131Z,99062.22
2022-11-18T01:45:01.069Z,99062.59
2022-11-18T01:47:30.079Z,99065.31
2022-11-18T01:49:56.896Z,99079.69
2022-11-18T01:52:23.666Z,99075.25
2022-11-18T01:54:53.354Z,99084.00
2022-11-18T01:57:22.604Z,99083.91
2022-11-18T01:59:50.726Z,99090.22
2022-11-18T02:02:17.773Z,99079.84
2022-11-18T02:04:47.582Z,99092.22
2022-11-18T02:07:15.064Z,99092.94
2022-11-18T02:09:42.401Z,99105.00
2022-11-18T02:12:10.139Z,99100.88
2022-11-18T02:14:39.665Z,99101.69
2022-11-18T02:17:06.322Z,99099.13
2022-11-18T02:19:48.508Z,99101.50
2022-11-18T02:22:15.132Z,99103.81
2022-11-18T02:24:56.756Z,99106.63
2022-11-18T02:27:42.246Z,99111.41
2022-11-18T02:30:10.800Z,99113.41
2022-11-18T02:32:37.433Z,99115.41
2022-11-18T02:35:18.039Z,99124.63
2022-11-18T02:37:54.834Z,99125.34
2022-11-18T02:40:53.751Z,99127.44
2022-11-18T02:43:23.282Z,99129.56
2022-11-18T02:45:51.464Z,99128.63
2022-11-18T02:48:19.739Z,99139.38
2022-11-18T02:50:48.141Z,99140.53
2022-11-18T02:53:17.027Z,99146.16
2022-11-18T02:55:44.884Z,99148.38
2022-11-18T02:58:12.020Z,99138.44
2022-11-18T03:00:38.619Z,99143.72
2022-11-18T03:03:37.843Z,99152.47
2022-11-18T03:06:07.417Z,99146.88
2022-11-18T03:08:46.747Z,99152.81
2022-11-18T03:11:16.720Z,99162.75
2022-11-18T03:14:07.139Z,99157.97
2022-11-18T03:16:44.976Z,99169.53
2022-11-18T03:19:32.884Z,99177.94
2022-11-18T03:22:05.680Z,99171.53
2022-11-18T03:24:34.206Z,99175.38
2022-11-18T03:27:30.287Z,99181.81
2022-11-18T03:30:04.034Z,99187.31
2022-11-18T03:32:38.141Z,99186.16
2022-11-18T03:35:10.080Z,99190.13
2022-11-18T03:37:38.668Z,99192.91
2022-11-18T03:40:25.569Z,99184.41
2022-11-18T03:42:54.714Z,99197.22
2022-11-18T03:45:27.295Z,99200.03
2022-11-18T03:48:34.170Z,99200.22
2022-11-18T03:51:07.427Z,99208.19
2022-11-18T03:53:36.642Z,99204.06
2022-11-18T03:56:17.096Z,99212.03
2022-11-18T03:58:49.443Z,99215.53
2022-11-18T04:01:18.493Z,99216.22
2022-11-18T04:03:45.432Z,99212.97
2022-11-18T04:06:20.780Z,99216.09
2022-11-18T04:08:50.785Z,99240.84
2022-11-18T04:11:40.463Z,99227.53
2022-11-18T04:14:07.916Z,99235.50
2022-11-18T04:16:44.562Z,99237.47
2022-11-18T04:19:11.612Z,99241.44
2022-11-18T04:21:38.194Z,99251.34
2022-11-18T04:24:04.877Z,99252.53
2022-11-18T04:26:31.825Z,99248.41
2022-11-18T04:28:58.706Z,99260.78
2022-11-18T04:31:25.396Z,99263.59
2022-11-18T04:33:52.036Z,99268.25
2022-11-18T04:36:20.099Z,99276.00
2022-11-18T04:38:46.721Z,99275.84
2022-11-18T04:41:13.355Z,99282.97
2022-11-18T04:43:40.198Z,99284.13
2022-11-18T04:46:06.865Z,99282.84
2022-11-18T04:48:33.565Z,99290.88
2022-11-18T04:51:04.099Z,99289.28
2022-11-18T04:53:30.827Z,99286.81
2022-11-18T04:55:57.542Z,99298.34
2022-11-18T04:58:24.159Z,99303.13
2022-11-18T05:00:51.255Z,99302.66
2022-11-18T05:03:17.900Z,99304.97
2022-11-18T05:05:44.544Z,99309.75
2022-11-18T05:08:11.149Z,99312.09
2022-11-18T05:10:38.491Z,99318.88
2022-11-18T05:13:05.109Z,99322.00
2022-11-18T05:15:32.283Z,99328.78
2022-11-18T05:17:58.971Z,99322.69
2022-11-18T05:20:25.680Z,99330.28
2022-11-18T05:22:52.264Z,99333.78
2022-11-18T05:25:18.892Z,99334.59
2022-11-18T05:27:45.479Z,99346.97
2022-11-18T05:30:12.618Z,99348.13
2022-11-18T05:32:39.336Z,99340.06
2022-11-18T05:35:06.192Z,99344.84
2022-11-18T05:37:34.021Z,99346.63
2022-11-18T05:40:00.645Z,99359.81
2022-11-18T05:42:47.202Z,99363.91
2022-11-18T05:45:13.955Z,99362.75
2022-11-18T05:48:00.051Z,99368.47
2022-11-18T05:50:26.685Z,99372.25
2022-11-18T05:52:53.305Z,99381.59
2022-11-18T05:55:21.023Z,99375.31
2022-11-18T05:57:47.646Z,99383.03
2022-11-18T06:00:14.578Z,99384.00
2022-11-18T06:02:43.429Z,99391.75
2022-11-18T06:05:11.630Z,99397.47
2022-11-18T06:07:40.407Z,99392.81
2022-11-18T06:10:07.262Z,99402.19
2022-11-18T06:12:39.694Z,99405.94
2022-11-18T06:15:09.969Z,99409.38
2022-11-18T06:17:40.971Z,99416.75
2022-11-18T06:20:08.337Z,99421.31
2022-11-18T06:22:35.413Z,99431.50
2022-11-18T06:25:02.956Z,99435.63
2022-11-18T06:27:30.308Z,99434.59
2022-11-18T06:29:57.051Z,99441.97
2022-11-18T06:32:32.226Z,99444.94
2022-11-18T06:34:58.814Z,99458.72
2022-11-18T06:37:25.492Z,99466.13
2022-11-18T06:39:52.151Z,99467.88
2022-11-18T06:42:37.672Z,99474.47
2022-11-18T06:45:05.293Z,99477.03
2022-11-18T06:47:32.262Z,99476.81
2022-11-18T06:49:58.917Z,99490.19
2022-11-18T06:52:31.139Z,99493.56
2022-11-18T06:54:57.759Z,99502.63
2022-11-18T06:57:24.347Z,99505.53
2022-11-18T06:59:52.012Z,99508.13
2022-11-18T07:02:21.136Z,99518.31
2022-11-18T07:04:48.023Z,99520.09
2022-11-18T07:07:14.771Z,99528.63
2022-11-18T07:09:41.526Z,99534.91
2022-11-18T07:12:08.245Z,99536.22
2022-11-18T07:14:34.879Z,99538.31
2022-11-18T07:17:01.571Z,99542.41
2022-11-18T07:19:32.809Z,99550.63
2022-11-18T07:22:02.219Z,99558.69
2022-11-18T07:24:28.799Z,99549.56
2022-11-18T07:26:55.593Z,99551.22
2022-11-18T07:29:22.280Z,99557.31
2022-11-18T07:31:48.840Z,99575.78
2022-11-18T07:34:15.583Z,99574.63
2022-11-18T07:36:42.269Z,99578.75
2022-11-18T07:39:09.290Z,99579.91
2022-11-18T07:41:36.090Z,99587.19
2022-11-18T07:44:03.664Z,99592.44
2022-11-18T07:46:33.116Z,99601.03
2022-11-18T07:49:00.622Z,99608.47
2022-11-18T07:51:28.568Z,99601.63
2022-11-18T07:53:55.478Z,99616.84
2022-11-18T07:56:22.274Z,99613.22
2022-11-18T07:58:52.170Z,99623.28
2022-11-18T08:01:19.890Z,99628.53
2022-11-18T08:03:47.174Z,99633.81
2022-11-18T08:06:15.374Z,99637.44
2022-11-18T08:08:42.456Z,99646.69
2022-11-18T08:11:10.075Z,99646.34
2022-11-18T08:13:36.941Z,99659.59
2022-11-18T08:16:04.346Z,99658.41
2022-11-18T08:18:31.744Z,99663.69
2022-11-18T08:21:02.998Z,99665.34
2022-11-18T08:23:33.106Z,99663.34
2022-11-18T08:26:12.372Z,99669.44
2022-11-18T08:28:39.121Z,99677.19
2022-11-18T08:31:12.075Z,99674.13
2022-11-18T08:33:38.788Z,99672.97
2022-11-18T08:36:25.676Z,99679.75
2022-11-18T08:38:52.292Z,99684.59
2022-11-18T08:41:31.976Z,99692.19
2022-11-18T08:43:58.687Z,99691.69
2022-11-18T08:46:25.313Z,99691.69
2022-11-18T08:48:51.953Z,99706.91
2022-11-18T08:51:18.689Z,99698.00
2022-11-18T08:53:45.288Z,99709.72
2022-11-18T08:56:15.551Z,99713.72
2022-11-18T08:58:42.879Z,99716.53
2022-11-18T09:01:09.655Z,99704.47
2022-11-18T09:03:37.328Z,99712.41
2022-11-18T09:06:10.102Z,99713.56
2022-11-18T09:08:37.015Z,99719.53
2022-11-18T09:11:30.038Z,99716.72
2022-11-18T09:15:05.833Z,99719.53
2022-11-18T09:16:47.020Z,99730.78
2022-11-18T09:22:01.718Z,99738.72
2022-11-18T09:24:28.316Z,99741.84
2022-11-18T09:26:54.953Z,99745.03
2022-11-18T09:29:25.683Z,99755.09
2022-11-18T09:31:55.256Z,99761.88
2022-11-18T09:34:22.487Z,99759.41
2022-11-18T09:36:49.893Z,99763.38
2022-11-18T09:39:16.850Z,99760.56
2022-11-18T09:41:53.811Z,99764.56
2022-11-18T09:44:38.966Z,99764.06
2022-11-18T09:47:25.021Z,99768.03
2022-11-18T09:49:52.248Z,99773.97
2022-11-18T09:52:21.094Z,99785.53
2022-11-18T09:54:47.917Z,99785.88
2022-11-18T09:57:16.165Z,99777.81
2022-11-18T09:59:43.239Z,99792.16
2022-11-18T10:02:23.350Z,99798.94
2022-11-18T10:04:50.352Z,99803.28
2022-11-18T10:07:33.039Z,99805.59
2022-11-18T10:10:08.376Z,99813.19
2022-11-18T10:12:40.417Z,99813.53
2022-11-18T10:15:14.745Z,99823.94
2022-11-18T10:17:51.908Z,99825.44
2022-11-18T10:20:22.185Z,99823.44
2022-11-18T10:22:59.148Z,99836.66
2022-11-18T10:25:26.788Z,99835.50
2022-11-18T10:27:53.817Z,99834.69
2022-11-18T10:30:23.186Z,99838.00
2022-11-18T10:32:54.317Z,99841.94
2022-11-18T10:35:25.273Z,99840.78
2022-11-18T10:38:07.918Z,99848.84
2022-11-18T10:40:39.292Z,99856.13
2022-11-18T10:43:06.364Z,99846.88
2022-11-18T10:45:33.733Z,99853.00
2022-11-18T10:48:07.162Z,99849.03
2022-11-18T10:50:36.832Z,99857.09
2022-11-18T10:53:04.567Z,99865.19
2022-11-18T10:55:31.612Z,99862.06
2022-11-18T10:58:08.263Z,99853.63
2022-11-18T11:00:41.762Z,99849.31
2022-11-18T11:03:22.153Z,99854.59
2022-11-18T11:05:49.325Z,99856.59
2022-11-18T11:08:37.373Z,99857.06
2022-11-18T11:11:20.081Z,99859.56
2022-11-18T11:13:46.989Z,99860.06
2022-11-18T11:16:20.060Z,99862.88
2022-11-18T11:18:54.467Z,99872.59
2022-11-18T11:21:25.416Z,99870.94
2022-11-18T11:23:52.409Z,99871.75
2022-11-18T11:29:19.156Z,99873.41
2022-11-18T11:31:58.034Z,99868.63
2022-11-18T11:34:25.410Z,99875.41
2022-11-18T11:36:59.836Z,99877.06
2022-11-18T11:39:37.694Z,99865.81
2022-11-18T11:42:14.226Z,99879.03
2022-11-18T11:44:41.316Z,99880.69
2022-11-18T11:47:23.421Z,99882.66
2022-11-18T11:49:54.248Z,99893.06
2022-11-18T11:52:28.645Z,99893.91
2022-11-18T11:54:57.965Z,99893.06
2022-11-18T11:57:26.045Z,99895.38
2022-11-18T11:59:59.145Z,99902.19
2022-11-18T12:02:28.916Z,99897.72
2022-11-18T12:05:00.809Z,99900.03
2022-11-18T12:07:32.775Z,99913.09
2022-11-18T12:10:10.133Z,99915.88
2022-11-18T12:12:45.506Z,99905.81
2022-11-18T12:15:19.731Z,99912.25
2022-11-18T12:17:52.671Z,99909.81
2022-11-18T12:20:31.152Z,99905.81
2022-11-18T12:23:08.064Z,99911.44
2022-11-18T12:25:44.853Z,99912.63
2022-11-18T12:28:11.783Z,99913.41
2022-11-18T12:30:38.601Z,99919.84
2022-11-18T12:33:11.733Z,99913.41
2022-11-18T12:35:38.640Z,99923.03
2022-11-18T12:38:05.623Z,99927.44
2022-11-18T12:40:37.462Z,99925.47
2022-11-18T12:43:15.486Z,99930.75
2022-11-18T12:45:42.910Z,99937.38
2022-11-18T12:48:24.210Z,99929.09
2022-11-18T12:50:55.229Z,99934.38
2022-11-18T12:53:31.685Z,99935.69
2022-11-18T12:55:58.844Z,99946.25
2022-11-18T12:58:27.077Z,99949.53
2022-11-18T13:01:06.686Z,99954.50
2022-11-18T13:03:34.639Z,99954.50
2022-11-18T13:06:04.306Z,99953.00
2022-11-18T13:08:31.432Z,99955.81
2022-11-18T13:11:14.622Z,99966.72
2022-11-18T13:13:42.467Z,99957.47
2022-11-18T13:16:28.452Z,99955.47
2022-11-18T13:18:55.302Z,99962.41
2022-11-18T13:21:34.512Z,99972.47
2022-11-18T13:24:01.709Z,99969.66
2022-11-18T13:26:31.469Z,99969.66
2022-11-18T13:29:09.603Z,99971.66
2022-11-18T13:31:45.025Z,99980.09
2022-11-18T13:34:17.234Z,99978.94
2022-11-18T13:36:45.192Z,99980.41
2022-11-18T13:39:19.014Z,99985.22
2022-11-18T13:41:46.223Z,99992.00
2022-11-18T13:44:23.266Z,99994.81
2022-11-18T13:46:55.101Z,100000.75
2022-11-18T13:49:24.486Z,100002.75
2022-11-18T13:51:52.243Z,100008.38
2022-11-18T13:54:24.686Z,100003.91
2022-11-18T13:56:52.011Z,100012.69
2022-11-18T13:59:20.716Z,100016.31
2022-11-18T14:01:54.298Z,100025.06
2022-11-18T14:04:22.695Z,100026.22
2022-11-18T14:06:50.126Z,100029.88
2022-11-18T14:09:17.457Z,100030.69
2022-11-18T14:11:46.170Z,100032.69
2022-11-18T14:14:28.452Z,100041.78
2022-11-18T14:17:03.598Z,100032.03
2022-11-18T14:19:31.851Z,100042.44
2022-11-18T14:22:12.863Z,100047.25
2022-11-18T14:24:40.245Z,100049.25
2022-11-18T14:27:16.632Z,100049.56
2022-11-18T14:29:50.102Z,100046.25
2022-11-18T14:32:17.571Z,100057.00
2022-11-18T14:34:44.629Z,100053.69
2022-11-18T14:37:13.213Z,100053.19
2022-11-18T14:39:40.643Z,100058.81
2022-11-18T14:42:11.221Z,100061.94
2022-11-18T14:44:38.660Z,100064.28
2022-11-18T14:47:12.490Z,100069.06
2022-11-18T14:49:39.980Z,100067.75
2022-11-18T14:52:07.221Z,100074.19
2022-11-18T14:54:34.340Z,100070.53
2022-11-18T14:57:03.209Z,100087.75
2022-11-18T14:59:30.633Z,100086.56
2022-11-18T15:01:59.349Z,100098.63
2022-11-18T15:04:26.638Z,100097.31
2022-11-18T15:06:53.790Z,100099.63
2022-11-18T15:09:23.520Z,100104.09
2022-11-18T15:11:50.748Z,100105.59
2022-11-18T15:14:18.158Z,100114.81
2022-11-18T15:16:45.733Z,100109.88
2022-11-18T15:19:15.141Z,100116.66
2022-11-18T15:21:42.428Z,100117.00
2022-11-18T15:24:09.636Z,100121.28
2022-11-18T15:26:39.302Z,100126.41
2022-11-18T15:29:06.736Z,100130.06
2022-11-18T15:31:34.214Z,100133.66
2022-11-18T15:34:06.567Z,100136.47
2022-11-18T15:36:34.292Z,100130.84
2022-11-18T15:39:01.562Z,100135.66
2022-11-18T15:41:30.099Z,100138.47
2022-11-18T15:43:58.426Z,100147.53
2022-11-18T15:46:26.705Z,100152.31
2022-11-18T15:48:54.982Z,100155.97
2022-11-18T15:51:22.373Z,100149.88
2022-11-18T15:53:49.617Z,100162.72
2022-11-18T15:56:17.109Z,100171.16
2022-11-18T15:58:44.414Z,100161.09
2022-11-18T16:01:11.938Z,100178.78
2022-11-18T16:03:39.151Z,100177.59
2022-11-18T16:06:06.820Z,100179.91
2022-11-18T16:08:34.199Z,100178.78
2022-11-18T16:11:10.534Z,100187.69
2022-11-18T16:13:37.621Z,100172.50
2022-11-18T16:16:05.255Z,100186.22
2022-11-18T16:18:35.405Z,100184.72
2022-11-18T16:21:06.814Z,100195.28
2022-11-18T16:23:34.054Z,100188.50
2022-11-18T16:26:01.507Z,100191.00
2022-11-18T16:28:28.608Z,100199.91
2022-11-18T16:31:05.700Z,100195.13
2022-11-18T16:33:33.075Z,100195.63
2022-11-18T16:36:00.383Z,100200.88
2022-11-18T16:38:27.993Z,100196.47
2022-11-18T16:40:57.167Z,100200.56
2022-11-18T16:43:25.257Z,100212.31
2022-11-18T16:45:53.329Z,100220.38
2022-11-18T16:48:21.102Z,100214.47
2022-11-18T16:50:57.793Z,100223.72
2022-11-18T16:53:26.205Z,100229.34
2022-11-18T16:55:53.990Z,100234.63
2022-11-18T16:58:23.653Z,100228.19
2022-11-18T17:01:17.562Z,100243.06
2022-11-18T17:03:38.333Z,100253.97
2022-11-18T17:06:05.510Z,100249.19
2022-11-18T17:08:35.056Z,100259.28
2022-11-18T17:11:06.307Z,100262.09
2022-11-18T17:13:33.351Z,100262.91
2022-11-18T17:16:03.832Z,100261.56
2022-11-18T17:18:31.061Z,100267.50
2022-11-18T17:21:02.112Z,100279.91
2022-11-18T17:23:29.183Z,100281.03
2022-11-18T17:25:56.122Z,100281.72
2022-11-18T17:28:23.455Z,100280.88
2022-11-18T17:30:51.014Z,100286.50
2022-11-18T17:33:18.119Z,100288.47
2022-11-18T17:35:45.214Z,100289.63
2022-11-18T17:38:12.363Z,100292.13
2022-11-18T17:40:39.526Z,100294.91
2022-11-18T17:43:06.588Z,100294.09
2022-11-18T17:45:33.616Z,100299.38
2022-11-18T17:48:01.013Z,100306.63
2022-11-18T17:50:28.052Z,100312.59
2022-11-18T17:52:55.643Z,100307.00
2022-11-18T17:55:22.930Z,100307.47
2022-11-18T17:57:49.933Z,100314.59
2022-11-18T18:00:17.576Z,100313.44
2022-11-18T18:02:44.781Z,100320.53
2022-11-18T18:05:11.861Z,100323.00
2022-11-18T18:07:39.147Z,100334.06
2022-11-18T18:10:06.782Z,100327.13
2022-11-18T18:12:44.757Z,100329.59
2022-11-18T18:15:14.599Z,100343.97
2022-11-18T18:17:41.638Z,100342.81
2022-11-18T18:20:09.267Z,100350.72
2022-11-18T18:22:36.669Z,100354.19
2022-11-18T18:25:03.717Z,100360.97
2022-11-18T18:27:31.349Z,100356.19
2022-11-18T18:29:58.791Z,100354.53
2022-11-18T18:32:26.525Z,100361.31
2022-11-18T18:34:53.812Z,100368.38
2022-11-18T18:37:23.673Z,100375.16
2022-11-18T18:39:53.978Z,100379.97
2022-11-18T18:42:26.405Z,100381.13
2022-11-18T18:45:14.450Z,100381.75
2022-11-18T18:47:41.724Z,100393.81
2022-11-18T18:50:08.954Z,100399.75
2022-11-18T18:52:36.866Z,100397.78
2022-11-18T18:55:04.433Z,100405.69
2022-11-18T18:57:32.047Z,100400.72
2022-11-18T18:59:59.193Z,100403.03
2022-11-18T19:02:26.294Z,100408.63
2022-11-18T19:04:53.321Z,100410.44
2022-11-18T19:07:20.433Z,100411.59
2022-11-18T19:09:47.527Z,100412.75
2022-11-18T19:12:24.580Z,100413.91
2022-11-18T19:14:51.780Z,100417.34
2022-11-18T19:17:18.867Z,100423.28
2022-11-18T19:19:55.619Z,100427.25
2022-11-18T19:22:22.629Z,100432.34
2022-11-18T19:24:50.917Z,100430.72
2022-11-18T19:27:18.839Z,100439.75
2022-11-18T19:29:45.964Z,100438.91
2022-11-18T19:32:13.120Z,100448.50
2022-11-18T19:34:40.191Z,100450.78
2022-11-18T19:37:07.324Z,100450.78
2022-11-18T19:39:35.567Z,100449.13
2022-11-18T19:42:02.484Z,100449.47
2022-11-18T19:44:29.777Z,100456.22
2022-11-18T19:46:56.806Z,100460.69
2022-11-18T19:49:23.765Z,100462.66
2022-11-18T19:51:50.867Z,100464.66
2022-11-18T19:54:18.073Z,100467.44
2022-11-18T19:56:44.996Z,100470.75
2022-11-18T19:59:13.924Z,100482.50
2022-11-18T20:01:41.667Z,100484.47
2022-11-18T20:04:08.853Z,100484.47
2022-11-18T20:06:36.756Z,100490.59
2022-11-18T20:09:06.740Z,100483.81
2022-11-18T20:11:33.636Z,100485.50
2022-11-18T20:14:00.618Z,100495.56
2022-11-18T20:16:27.778Z,100494.44
2022-11-18T20:18:56.961Z,100490.47
2022-11-18T20:21:24.630Z,100497.41
2022-11-18T20:23:52.806Z,100502.19
2022-11-18T20:26:20.558Z,100505.53
2022-11-18T20:28:54.333Z,100504.03
2022-11-18T20:31:24.848Z,100514.13
2022-11-18T20:33:53.926Z,100515.81
2022-11-18T20:36:24.160Z,100519.44
2022-11-18T20:38:52.349Z,100519.09
2022-11-18T20:41:19.827Z,100527.22
2022-11-18T20:43:48.569Z,100535.50
2022-11-18T20:46:20.456Z,100534.34
2022-11-18T20:48:48.714Z,100540.78
2022-11-18T20:51:17.469Z,100540.47
2022-11-18T20:53:44.657Z,100542.13
2022-11-18T20:56:14.251Z,100538.50
2022-11-18T20:58:41.612Z,100546.41
2022-11-18T21:01:17.824Z,100553.19
2022-11-18T21:03:51.527Z,100557.44
2022-11-18T21:06:18.586Z,100549.34
2022-11-18T21:08:45.569Z,100556.13
2022-11-18T21:11:13.294Z,100561.22
2022-11-18T21:13:50.536Z,100562.34
2022-11-18T21:16:18.089Z,100568.31
2022-11-18T21:18:45.117Z,100565.31
2022-11-18T21:21:21.556Z,100566.13
2022-11-18T21:23:48.571Z,100574.75
2022-11-18T21:26:15.732Z,100569.97
2022-11-18T21:28:42.677Z,100574.75
2022-11-18T21:31:10.985Z,100572.44
2022-11-18T21:33:38.100Z,100573.28
2022-11-18T21:36:05.594Z,100580.03
2022-11-18T21:38:32.587Z,100577.56
2022-11-18T21:41:04.834Z,100591.59
2022-11-18T21:44:03.868Z,100592.94
2022-11-18T21:46:20.976Z,100595.44
2022-11-18T21:48:48.205Z,100592.28
2022-11-18T21:51:16.511Z,100593.13
2022-11-18T21:53:43.871Z,100602.91
2022-11-18T21:56:12.615Z,100606.19
2022-11-18T21:58:39.854Z,100614.00
2022-11-18T22:01:09.330Z,100614.50
2022-11-18T22:03:36.747Z,100612.22
2022-11-18T22:06:04.000Z,100615.50
2022-11-18T22:08:30.707Z,100616.88
2022-11-18T22:10:58.218Z,100619.03
2022-11-18T22:13:24.931Z,100625.47
2022-11-18T22:16:03.741Z,100619.88
2022-11-18T22:18:31.556Z,100627.97
2022-11-18T22:20:59.704Z,100633.25
2022-11-18T22:23:30.411Z,100629.00
2022-11-18T22:25:59.044Z,100629.84
2022-11-18T22:28:25.764Z,100639.91
2022-11-18T22:30:52.937Z,100642.41
2022-11-18T22:33:20.029Z,100640.41
2022-11-18T22:35:48.036Z,100645.72
2022-11-18T22:38:14.773Z,100642.09
2022-11-18T22:40:41.422Z,100646.88
2022-11-18T22:43:08.115Z,100649.34
2022-11-18T22:45:36.307Z,100649.88
2022-11-18T22:48:03.063Z,100651.84
2022-11-18T22:50:30.300Z,100648.72
2022-11-18T22:52:57.021Z,100654.78
2022-11-18T22:55:23.695Z,100647.94
2022-11-18T22:57:50.323Z,100654.91
2022-11-18T23:00:17.088Z,100655.41
2022-11-18T23:02:43.735Z,100660.22
2022-11-18T23:05:10.909Z,100666.66
2022-11-18T23:07:37.671Z,100669.97
2022-11-18T23:10:04.563Z,100669.16
2022-11-18T23:12:55.248Z,100671.97
2022-11-18T23:15:21.879Z,100671.97
2022-11-18T23:17:48.531Z,100674.78
2022-11-18T23:20:16.124Z,100680.41
2022-11-18T23:22:42.772Z,100679.56
2022-11-18T23:25:09.550Z,100690.47
2022-11-18T23:27:36.182Z,100689.31
2022-11-18T23:30:02.856Z,100689.84
2022-11-18T23:32:33.485Z,100703.25
2022-11-18T23:35:00.082Z,100705.44
2022-11-18T23:37:26.840Z,100712.91
2022-11-18T23:39:53.464Z,100709.16
2022-11-18T23:42:20.110Z,100704.06
2022-11-18T23:44:46.864Z,100710.69
2022-11-18T23:47:13.567Z,100715.66
2022-11-18T23:49:40.257Z,100718.34
2022-11-18T23:52:06.880Z,100719.38
2022-11-18T23:54:33.536Z,100723.53
2022-11-18T23:57:00.197Z,100728.19
2022-11-18T23:59:26.845Z,100731.50
